Time;durP1;ratioP1;P1;durP2;ratioP2;P2;SDS_P1;SDS_P2;PMS_P1;PMS_P2;Temp;Humidity;BMP_temperature;BMP_pressure;BME280_temperature;BME280_humidity;BME280_pressure;Samples;Min_cycle;Max_cycle;Signal;HPM_P1;HPM_P2
2021/07/01 00:01:05;;;;;;;3.83;2.20;;;24.90;56.00;;;;;;5061186;28;20448;-67
2021/07/01 00:03:31;;;;;;;3.42;2.00;;;24.80;55.80;;;;;;5062792;28;20012;-67
2021/07/01 00:05:57;;;;;;;4.85;2.20;;;24.90;55.80;;;;;;5061654;28;20028;-67
2021/07/01 00:08:24;;;;;;;4.45;2.00;;;24.80;55.70;;;;;;5061175;28;20025;-67
2021/07/01 00:10:50;;;;;;;4.88;2.10;;;24.80;55.70;;;;;;5062915;28;20024;-66
2021/07/01 00:13:16;;;;;;;2.28;1.45;;;24.80;55.70;;;;;;5060908;28;20025;-67
2021/07/01 00:15:42;;;;;;;3.45;2.08;;;24.80;55.60;;;;;;5061092;28;20066;-67
2021/07/01 00:18:07;;;;;;;3.78;1.63;;;24.80;55.50;;;;;;5062507;28;20021;-66
2021/07/01 00:20:33;;;;;;;3.95;2.00;;;24.80;55.50;;;;;;5060855;28;20619;-67
2021/07/01 00:22:59;;;;;;;5.03;1.92;;;24.80;55.50;;;;;;5059975;28;20111;-67
2021/07/01 00:25:25;;;;;;;5.20;2.85;;;24.80;55.30;;;;;;5061890;28;20115;-67
2021/07/01 00:27:51;;;;;;;3.90;2.13;;;24.80;55.30;;;;;;5060447;28;20382;-67
2021/07/01 00:30:19;;;;;;;5.05;1.63;;;24.80;55.20;;;;;;5061737;28;20028;-67
2021/07/01 00:32:45;;;;;;;2.60;1.60;;;24.70;55.80;;;;;;5062470;28;20079;-67
2021/07/01 00:35:12;;;;;;;3.42;1.58;;;24.70;55.10;;;;;;5060043;28;20036;-67
2021/07/01 00:37:38;;;;;;;4.72;1.80;;;24.70;55.10;;;;;;5060284;28;20052;-67
2021/07/01 00:40:07;;;;;;;3.60;1.83;;;24.70;55.00;;;;;;5061712;28;20021;-67
2021/07/01 00:42:33;;;;;;;4.47;2.15;;;24.70;54.80;;;;;;5060086;28;20071;-67
2021/07/01 00:44:58;;;;;;;2.70;1.80;;;24.70;54.70;;;;;;5061211;28;20404;-67
2021/07/01 00:47:24;;;;;;;3.53;1.48;;;24.70;54.70;;;;;;5062021;28;20043;-67
2021/07/01 00:49:51;;;;;;;2.45;1.50;;;24.70;54.50;;;;;;5059986;28;20028;-67
2021/07/01 00:52:17;;;;;;;3.50;1.58;;;24.70;54.40;;;;;;5061511;28;20052;-67
2021/07/01 00:54:43;;;;;;;4.13;1.73;;;24.70;54.30;;;;;;5061430;28;20057;-67
2021/07/01 00:57:11;;;;;;;4.40;1.40;;;24.70;54.20;;;;;;5065810;28;20031;-67
2021/07/01 00:59:38;;;;;;;4.05;1.25;;;24.70;54.00;;;;;;5072987;28;20028;-67
2021/07/01 01:02:05;;;;;;;1.75;1.10;;;24.70;53.80;;;;;;5072752;28;20123;-67
2021/07/01 01:04:31;;;;;;;3.30;1.35;;;24.70;53.70;;;;;;5072948;28;20082;-67
2021/07/01 01:06:57;;;;;;;2.80;1.23;;;24.70;53.60;;;;;;5071535;28;20442;-67
2021/07/01 01:09:22;;;;;;;2.40;1.40;;;24.70;53.50;;;;;;5072227;28;20028;-67
2021/07/01 01:11:48;;;;;;;2.92;1.38;;;24.70;53.50;;;;;;5070352;28;20499;-67
2021/07/01 01:14:14;;;;;;;2.33;1.35;;;24.70;53.40;;;;;;5070412;28;20028;-67
2021/07/01 01:16:40;;;;;;;2.35;1.50;;;24.70;53.20;;;;;;5070293;28;20040;-67
2021/07/01 01:19:06;;;;;;;4.88;1.40;;;24.70;53.10;;;;;;5071250;28;20028;-67
2021/07/01 01:21:32;;;;;;;2.20;1.38;;;24.70;53.00;;;;;;5071200;28;20213;-67
2021/07/01 01:24:01;;;;;;;2.35;1.10;;;24.70;52.90;;;;;;5071210;28;20365;-67
2021/07/01 01:26:27;;;;;;;2.88;1.20;;;24.60;52.70;;;;;;5071636;28;20024;-67
2021/07/01 01:28:54;;;;;;;2.83;1.30;;;24.70;52.60;;;;;;5072621;28;20071;-67
2021/07/01 01:31:20;;;;;;;1.98;1.25;;;24.60;52.40;;;;;;5072999;28;20025;-67
2021/07/01 01:33:48;;;;;;;2.78;1.20;;;24.70;52.10;;;;;;5072159;28;20127;-67
2021/07/01 01:36:14;;;;;;;3.33;1.00;;;24.70;51.90;;;;;;5072422;28;20032;-67
2021/07/01 01:38:40;;;;;;;2.22;1.02;;;24.70;51.80;;;;;;5071646;28;20051;-67
2021/07/01 01:41:05;;;;;;;3.33;1.50;;;24.70;51.50;;;;;;5072437;28;20024;-67
2021/07/01 01:43:31;;;;;;;2.30;1.02;;;24.60;51.30;;;;;;5072141;28;20020;-67
2021/07/01 01:45:57;;;;;;;3.53;1.42;;;24.60;51.20;;;;;;5072389;28;20433;-67
2021/07/01 01:48:23;;;;;;;3.75;1.42;;;24.70;51.10;;;;;;5072175;28;20054;-67
2021/07/01 01:50:49;;;;;;;3.03;1.30;;;24.60;51.60;;;;;;5072286;28;20030;-67
2021/07/01 01:53:15;;;;;;;1.80;1.02;;;24.60;50.80;;;;;;5071701;28;20123;-67
2021/07/01 01:55:41;;;;;;;3.05;1.13;;;24.60;50.80;;;;;;5072107;28;20037;-67
2021/07/01 01:58:07;;;;;;;4.28;1.15;;;24.60;50.80;;;;;;5072609;28;20028;-67
2021/07/01 02:00:34;;;;;;;2.25;1.00;;;24.60;50.70;;;;;;5075521;28;20515;-67
2021/07/01 02:03:01;;;;;;;2.00;1.10;;;24.60;50.80;;;;;;5075745;28;20031;-67
2021/07/01 02:05:27;;;;;;;2.03;1.15;;;24.60;50.80;;;;;;5075975;28;20033;-67
2021/07/01 02:07:53;;;;;;;2.75;0.93;;;24.60;50.80;;;;;;5075634;28;20138;-67
2021/07/01 02:10:23;;;;;;;3.75;1.13;;;24.60;50.70;;;;;;5075712;28;20056;-67
2021/07/01 02:12:49;;;;;;;1.83;1.23;;;24.60;50.70;;;;;;5074467;28;20028;-67
2021/07/01 02:15:18;;;;;;;1.30;0.80;;;24.60;50.70;;;;;;5075376;28;20115;-67
2021/07/01 02:17:44;;;;;;;2.60;1.00;;;24.60;50.70;;;;;;5075572;28;20025;-67
2021/07/01 02:20:16;;;;;;;3.95;0.90;;;24.60;50.70;;;;;;5075359;28;20098;-67
2021/07/01 02:22:42;;;;;;;5.85;1.30;;;24.60;50.70;;;;;;5075388;28;20024;-67
2021/07/01 02:25:09;;;;;;;2.95;1.13;;;24.60;50.80;;;;;;5075081;28;20099;-67
2021/07/01 02:27:36;;;;;;;6.15;1.20;;;24.60;50.70;;;;;;5075290;28;20092;-67
2021/07/01 02:30:05;;;;;;;2.03;0.90;;;24.60;50.70;;;;;;5075287;28;20099;-67
2021/07/01 02:32:31;;;;;;;4.22;1.25;;;24.60;50.70;;;;;;5075138;28;20046;-67
2021/07/01 02:34:56;;;;;;;3.17;1.27;;;24.60;50.70;;;;;;5075117;28;20545;-67
2021/07/01 02:37:23;;;;;;;4.68;1.08;;;24.60;50.70;;;;;;5073632;28;20025;-67
2021/07/01 02:39:49;;;;;;;1.75;0.93;;;24.60;50.60;;;;;;5075280;28;20048;-67
2021/07/01 02:42:15;;;;;;;2.33;1.00;;;24.60;50.50;;;;;;5074934;28;20524;-67
2021/07/01 02:44:41;;;;;;;2.47;1.13;;;24.60;50.50;;;;;;5075380;28;20427;-67
2021/07/01 02:47:06;;;;;;;2.40;0.90;;;24.60;50.60;;;;;;5073582;28;20109;-67
2021/07/01 02:49:32;;;;;;;0.95;0.80;;;24.60;50.60;;;;;;5074967;28;20101;-67
2021/07/01 02:51:58;;;;;;;2.22;1.05;;;24.60;50.60;;;;;;5074928;28;20346;-67
2021/07/01 02:54:24;;;;;;;2.33;1.08;;;24.50;50.70;;;;;;5075068;28;20037;-67
2021/07/01 02:56:50;;;;;;;2.95;0.70;;;24.60;50.70;;;;;;5074684;28;20419;-67
2021/07/01 02:59:18;;;;;;;2.72;0.90;;;24.50;50.60;;;;;;5074916;28;20440;-67
2021/07/01 03:01:49;;;;;;;1.55;0.70;;;24.60;50.60;;;;;;5074716;28;20475;-67
2021/07/01 03:04:15;;;;;;;;;;;24.50;50.30;;;;;;5075075;28;20032;-67
2021/07/01 03:06:41;;;;;;;5.20;2.15;;;24.50;50.20;;;;;;5074814;28;19905;-67
2021/07/01 03:09:07;;;;;;;1.20;0.60;;;24.50;50.30;;;;;;5073282;28;20187;-67
2021/07/01 03:11:33;;;;;;;2.80;1.00;;;24.50;50.20;;;;;;5073668;28;20517;-67
2021/07/01 03:13:59;;;;;;;5.35;1.35;;;24.50;50.10;;;;;;5074383;28;20021;-67
2021/07/01 03:16:25;;;;;;;1.55;0.73;;;24.50;50.10;;;;;;5074444;28;20828;-67
2021/07/01 03:18:51;;;;;;;1.02;0.95;;;24.50;50.00;;;;;;5074114;28;20050;-67
2021/07/01 03:21:19;;;;;;;2.47;0.88;;;24.50;50.00;;;;;;5074524;28;20021;-67
2021/07/01 03:23:45;;;;;;;4.15;0.80;;;24.50;49.80;;;;;;5074572;28;20131;-67
2021/07/01 03:26:13;;;;;;;1.73;0.88;;;24.50;49.80;;;;;;5074107;28;20020;-67
2021/07/01 03:28:39;;;;;;;1.60;0.73;;;24.40;49.70;;;;;;5074053;28;20137;-67
2021/07/01 03:31:06;;;;;;;1.98;0.80;;;24.50;49.80;;;;;;5074239;28;20024;-67
2021/07/01 03:33:32;;;;;;;1.73;0.80;;;24.40;49.60;;;;;;5072826;28;20033;-67
2021/07/01 03:35:58;;;;;;;2.08;0.90;;;24.40;49.60;;;;;;5074028;28;20032;-67
2021/07/01 03:38:24;;;;;;;1.42;0.80;;;24.40;49.60;;;;;;5074000;28;20049;-67
2021/07/01 03:40:50;;;;;;;2.47;1.45;;;24.40;49.50;;;;;;5073894;28;20029;-67
2021/07/01 03:43:17;;;;;;;3.67;0.95;;;24.40;49.30;;;;;;5073954;28;20461;-67
2021/07/01 03:45:43;;;;;;;4.90;0.70;;;24.40;49.20;;;;;;5073614;28;20495;-67
2021/07/01 03:48:08;;;;;;;0.95;0.60;;;24.40;49.10;;;;;;5073645;28;20024;-67
2021/07/01 03:50:34;;;;;;;1.65;1.00;;;24.40;49.00;;;;;;5073547;28;20016;-67
2021/07/01 03:53:00;;;;;;;1.90;0.88;;;24.40;49.10;;;;;;5073902;28;20055;-67
2021/07/01 03:55:25;;;;;;;2.78;0.80;;;24.40;49.10;;;;;;5073171;28;20079;-67
2021/07/01 03:57:51;;;;;;;1.48;0.85;;;24.40;49.10;;;;;;5073797;28;20503;-67
2021/07/01 04:00:17;;;;;;;1.95;0.77;;;24.40;49.10;;;;;;5073378;28;20389;-67
2021/07/01 04:02:43;;;;;;;2.33;0.80;;;24.30;49.00;;;;;;5073477;28;20024;-67
2021/07/01 04:05:09;;;;;;;1.98;0.88;;;24.30;49.00;;;;;;5073309;28;20028;-67
2021/07/01 04:07:35;;;;;;;1.85;0.73;;;24.30;49.70;;;;;;5073650;28;20166;-67
2021/07/01 04:10:07;;;;;;;2.47;1.00;;;24.30;49.20;;;;;;5073573;28;20104;-67
2021/07/01 04:12:36;;;;;;;4.43;1.15;;;24.30;49.20;;;;;;5073346;28;20033;-67
2021/07/01 04:15:03;;;;;;;1.73;0.70;;;24.30;49.10;;;;;;5073133;28;20032;-67
2021/07/01 04:17:29;;;;;;;7.20;1.08;;;24.40;49.20;;;;;;5073150;28;20066;-67
2021/07/01 04:19:54;;;;;;;2.38;0.90;;;24.40;49.20;;;;;;5073527;28;20060;-67
2021/07/01 04:22:20;;;;;;;3.47;0.80;;;24.40;49.20;;;;;;5072626;28;20028;-67
2021/07/01 04:24:46;;;;;;;2.65;0.80;;;24.40;49.20;;;;;;5073281;28;20103;-67
2021/07/01 04:27:12;;;;;;;3.17;0.90;;;24.30;49.20;;;;;;5072694;28;20116;-67
2021/07/01 04:29:38;;;;;;;1.85;0.57;;;24.40;49.30;;;;;;5073150;28;20115;-67
2021/07/01 04:32:04;;;;;;;0.82;0.70;;;24.30;49.30;;;;;;5073029;28;20078;-66
2021/07/01 04:34:30;;;;;;;2.58;0.82;;;24.30;49.30;;;;;;5073136;28;20028;-67
2021/07/01 04:36:55;;;;;;;1.95;0.73;;;24.30;49.40;;;;;;5072976;28;20035;-66
2021/07/01 04:39:21;;;;;;;2.28;1.10;;;24.30;49.30;;;;;;5072988;28;20037;-67
2021/07/01 04:41:47;;;;;;;1.30;0.80;;;24.30;49.40;;;;;;5073073;28;20060;-67
2021/07/01 04:44:12;;;;;;;1.73;1.17;;;24.30;49.40;;;;;;5072629;28;20366;-67
2021/07/01 04:46:38;;;;;;;3.20;1.08;;;24.30;49.40;;;;;;5073230;28;20031;-67
2021/07/01 04:49:04;;;;;;;2.90;1.45;;;24.30;49.40;;;;;;5072673;28;20031;-67
2021/07/01 04:51:30;;;;;;;3.25;0.85;;;24.40;49.60;;;;;;5073021;28;20033;-67
2021/07/01 04:53:56;;;;;;;1.05;0.90;;;24.30;49.50;;;;;;5072522;28;20036;-67
2021/07/01 04:56:22;;;;;;;3.78;1.52;;;24.40;49.60;;;;;;5072935;28;20033;-67
2021/07/01 04:58:48;;;;;;;2.55;1.00;;;24.30;49.60;;;;;;5072543;28;20384;-67
2021/07/01 05:01:13;;;;;;;2.58;0.90;;;24.40;49.60;;;;;;5072717;28;20024;-67
2021/07/01 05:03:39;;;;;;;4.35;1.17;;;24.30;49.30;;;;;;5072559;28;20021;-67
2021/07/01 05:06:05;;;;;;;4.65;0.90;;;24.40;49.10;;;;;;5072847;28;20440;-67
2021/07/01 05:08:30;;;;;;;4.70;1.10;;;24.30;49.10;;;;;;5072715;28;20036;-67
2021/07/01 05:10:56;;;;;;;3.83;2.00;;;24.40;49.30;;;;;;5072524;28;20021;-67
2021/07/01 05:13:22;;;;;;;2.95;1.08;;;24.40;49.30;;;;;;5072846;28;20066;-67
2021/07/01 05:15:49;;;;;;;2.30;1.58;;;24.30;49.30;;;;;;5072265;28;20484;-67
2021/07/01 05:18:14;;;;;;;5.78;1.52;;;24.40;49.40;;;;;;5072795;28;20024;-67
2021/07/01 05:20:42;;;;;;;2.95;1.08;;;24.40;49.30;;;;;;5072866;28;20361;-66
2021/07/01 05:23:08;;;;;;;5.25;1.48;;;24.40;49.20;;;;;;5072853;28;20067;-67
2021/07/01 05:25:35;;;;;;;2.85;0.88;;;24.40;49.10;;;;;;5072228;28;20021;-67
2021/07/01 05:28:09;;;;;;;2.92;1.08;;;24.40;49.10;;;;;;5072605;28;20465;-67
2021/07/01 05:30:34;;;;;;;4.13;0.93;;;24.30;49.10;;;;;;5072557;28;20056;-67
2021/07/01 05:33:00;;;;;;;3.80;1.27;;;24.30;49.20;;;;;;5072663;28;20094;-67
2021/07/01 05:35:26;;;;;;;2.17;1.00;;;24.30;49.20;;;;;;5076259;28;20553;-67
2021/07/01 05:37:52;;;;;;;3.45;1.00;;;24.30;49.30;;;;;;5076474;28;20492;-67
2021/07/01 05:40:21;;;;;;;1.45;1.08;;;24.30;49.30;;;;;;5074810;28;20137;-67
2021/07/01 05:42:47;;;;;;;3.83;1.55;;;24.30;49.40;;;;;;5076155;28;20029;-67
2021/07/01 05:45:12;;;;;;;2.00;1.13;;;24.30;49.60;;;;;;5076511;28;20089;-67
2021/07/01 05:47:39;;;;;;;3.78;1.75;;;24.30;49.60;;;;;;5076042;28;20063;-67
2021/07/01 05:50:06;;;;;;;2.67;1.15;;;24.30;49.70;;;;;;5076200;28;20082;-67
2021/07/01 05:52:34;;;;;;;4.53;1.23;;;24.30;49.80;;;;;;5075813;28;20044;-67
2021/07/01 05:55:00;;;;;;;3.67;1.83;;;24.30;49.90;;;;;;5075757;28;20036;-67
2021/07/01 05:57:28;;;;;;;3.15;1.30;;;24.30;49.90;;;;;;5075572;28;20031;-67
2021/07/01 05:59:54;;;;;;;3.97;1.58;;;24.30;49.90;;;;;;5076069;28;20024;-68
2021/07/01 06:02:20;;;;;;;4.20;1.17;;;24.30;50.00;;;;;;5075506;28;20487;-66
2021/07/01 06:04:46;;;;;;;2.55;1.30;;;24.30;49.90;;;;;;5075712;28;20029;-67
2021/07/01 06:07:17;;;;;;;3.05;1.23;;;24.40;49.90;;;;;;5075681;28;20020;-67
2021/07/01 06:09:46;;;;;;;2.92;1.45;;;24.30;49.80;;;;;;5075747;28;20020;-66
2021/07/01 06:12:12;;;;;;;3.20;1.20;;;24.40;50.00;;;;;;5075435;28;20051;-67
2021/07/01 06:14:38;;;;;;;4.53;0.93;;;24.40;50.00;;;;;;5075725;28;20029;-67
2021/07/01 06:17:05;;;;;;;2.30;0.90;;;24.40;50.10;;;;;;5075755;28;20029;-67
2021/07/01 06:19:31;;;;;;;8.07;2.65;;;24.40;50.10;;;;;;5075203;28;20032;-67
2021/07/01 06:21:57;;;;;;;2.85;1.27;;;24.40;50.10;;;;;;5075253;28;20020;-67
2021/07/01 06:24:23;;;;;;;4.03;1.00;;;24.40;50.10;;;;;;5074764;28;20069;-67
2021/07/01 06:26:49;;;;;;;3.47;1.20;;;24.40;50.20;;;;;;5075061;28;20129;-67
2021/07/01 06:29:16;;;;;;;1.48;0.80;;;24.40;50.30;;;;;;5075075;28;20032;-66
2021/07/01 06:31:42;;;;;;;7.43;1.20;;;24.40;50.30;;;;;;5074999;28;20388;-67
2021/07/01 06:34:08;;;;;;;1.92;0.98;;;24.40;50.30;;;;;;5074713;28;20036;-67
2021/07/01 06:36:37;;;;;;;3.45;1.33;;;24.50;50.40;;;;;;5075018;28;20028;-67
2021/07/01 06:39:05;;;;;;;3.90;1.10;;;24.50;50.40;;;;;;5074866;28;20126;-67
2021/07/01 06:41:33;;;;;;;2.88;1.33;;;24.50;50.30;;;;;;5075254;28;20048;-67
2021/07/01 06:44:00;;;;;;;6.82;1.23;;;24.50;50.30;;;;;;5074765;28;20483;-67
2021/07/01 06:46:31;;;;;;;5.10;0.95;;;24.50;50.30;;;;;;5074644;28;20115;-66
2021/07/01 06:48:57;;;;;;;6.05;1.85;;;24.40;50.10;;;;;;5074420;28;20028;-66
2021/07/01 06:51:23;;;;;;;5.05;1.17;;;24.40;50.00;;;;;;5074210;28;20040;-68
2021/07/01 06:53:52;;;;;;;4.28;1.00;;;24.40;49.90;;;;;;5074221;28;20028;-69
2021/07/01 06:56:21;;;;;;;5.65;1.63;;;24.40;50.00;;;;;;5074067;28;20090;-68
2021/07/01 06:58:47;;;;;;;7.03;2.72;;;24.40;50.50;;;;;;5073641;28;20067;-68
2021/07/01 07:01:13;;;;;;;10.77;5.88;;;24.30;50.70;;;;;;5072668;28;20059;-68
2021/07/01 07:03:39;;;;;;;9.77;5.10;;;24.40;50.50;;;;;;5074113;28;20031;-68
2021/07/01 07:06:05;;;;;;;13.60;8.73;;;24.30;50.50;;;;;;5072141;28;20029;-68
2021/07/01 07:08:31;;;;;;;15.32;7.80;;;24.40;50.60;;;;;;5074085;28;20025;-68
2021/07/01 07:10:59;;;;;;;16.95;11.57;;;24.40;50.80;;;;;;5073758;28;20025;-69
2021/07/01 07:13:25;;;;;;;16.13;10.80;;;24.40;50.90;;;;;;5073948;28;20020;-69
2021/07/01 07:15:53;;;;;;;11.45;7.50;;;24.40;50.70;;;;;;5072216;28;20051;-68
2021/07/01 07:18:29;;;;;;;9.98;5.20;;;24.30;50.20;;;;;;5074041;28;20078;-69
2021/07/01 07:20:58;;;;;;;7.55;4.78;;;24.20;50.00;;;;;;5073299;28;20036;-68
2021/07/01 07:23:32;;;;;;;7.65;5.30;;;24.20;50.10;;;;;;5073892;28;20017;-68
2021/07/01 07:26:00;;;;;;;11.63;5.63;;;24.30;50.10;;;;;;5073192;28;20032;-68
2021/07/01 07:28:26;;;;;;;14.90;4.88;;;24.30;50.10;;;;;;5073634;28;20028;-68
2021/07/01 07:30:55;;;;;;;9.18;5.10;;;24.40;50.40;;;;;;5073765;28;20031;-68
2021/07/01 07:33:26;;;;;;;11.02;4.82;;;24.40;50.50;;;;;;5073291;28;20422;-68
2021/07/01 07:35:53;;;;;;;8.73;4.95;;;24.40;50.60;;;;;;5073584;28;20028;-68
2021/07/01 07:38:19;;;;;;;10.40;4.50;;;24.40;50.60;;;;;;5072937;28;20060;-66
2021/07/01 07:40:49;;;;;;;7.75;4.55;;;24.40;50.50;;;;;;5073124;28;20445;-66
2021/07/01 07:43:15;;;;;;;9.05;4.20;;;24.40;50.40;;;;;;5073232;28;20380;-66
2021/07/01 07:45:42;;;;;;;5.80;3.35;;;24.40;50.30;;;;;;5073265;28;20032;-67
2021/07/01 07:48:08;;;;;;;8.93;3.20;;;24.40;50.00;;;;;;5073193;28;20021;-67
2021/07/01 07:50:37;;;;;;;6.93;3.17;;;24.40;49.90;;;;;;5071899;28;20149;-68
2021/07/01 07:53:06;;;;;;;5.75;3.25;;;24.40;49.70;;;;;;5073071;28;20021;-67
2021/07/01 07:55:34;;;;;;;9.82;3.15;;;24.40;49.80;;;;;;5072781;28;20028;-67
2021/07/01 07:58:03;;;;;;;6.05;2.90;;;24.40;49.50;;;;;;5072497;28;20077;-67
2021/07/01 08:00:28;;;;;;;4.22;2.22;;;24.50;49.80;;;;;;5072846;28;20028;-67
2021/07/01 08:02:59;;;;;;;7.05;2.72;;;24.40;49.50;;;;;;5072864;28;20065;-68
2021/07/01 08:05:30;;;;;;;;;;;24.40;49.60;;;;;;5073283;28;20381;-67
2021/07/01 08:07:56;;;;;;;6.70;2.63;;;24.40;49.70;;;;;;5072978;28;19915;-67
2021/07/01 08:10:29;;;;;;;6.68;2.33;;;24.40;49.60;;;;;;5072895;28;20052;-67
2021/07/01 08:13:01;;;;;;;3.83;2.17;;;24.40;49.70;;;;;;5072714;28;20035;-67
2021/07/01 08:15:28;;;;;;;5.43;1.67;;;24.40;49.50;;;;;;5072729;28;20033;-67
2021/07/01 08:17:54;;;;;;;4.97;1.90;;;24.50;49.60;;;;;;5072944;28;20036;-68
2021/07/01 08:20:22;;;;;;;4.63;1.80;;;24.50;49.60;;;;;;5072758;28;20032;-67
2021/07/01 08:22:50;;;;;;;5.93;1.80;;;24.40;49.50;;;;;;5072742;28;20017;-67
2021/07/01 08:25:17;;;;;;;4.72;1.70;;;24.40;49.60;;;;;;5072201;28;20036;-67
2021/07/01 08:27:45;;;;;;;3.35;1.77;;;24.40;49.50;;;;;;5071515;28;20063;-67
2021/07/01 08:30:13;;;;;;;2.30;1.38;;;24.50;49.50;;;;;;5072295;28;20024;-67
2021/07/01 08:32:39;;;;;;;3.75;1.40;;;24.50;49.50;;;;;;5072469;28;20032;-66
2021/07/01 08:35:07;;;;;;;3.40;1.20;;;24.50;49.40;;;;;;5072144;28;20032;-66
2021/07/01 08:37:33;;;;;;;2.72;1.55;;;24.50;49.30;;;;;;5072131;28;20507;-67
2021/07/01 08:40:05;;;;;;;2.38;1.38;;;24.50;49.20;;;;;;5072083;28;20028;-67
2021/07/01 08:42:36;;;;;;;2.85;1.48;;;24.40;49.10;;;;;;5072650;28;20021;-67
2021/07/01 08:45:07;;;;;;;2.97;1.50;;;24.40;49.00;;;;;;5071968;28;20145;-67
2021/07/01 08:47:35;;;;;;;3.80;1.35;;;24.50;48.90;;;;;;5071996;28;20104;-67
2021/07/01 08:50:10;;;;;;;2.70;1.35;;;24.50;49.00;;;;;;5072109;28;20048;-67
2021/07/01 08:52:58;;;;;;;2.63;1.33;;;24.40;48.50;;;;;;5072122;28;20040;-67
2021/07/01 08:55:27;;;;;;;2.38;1.48;;;24.40;48.50;;;;;;5071877;28;20090;-67
2021/07/01 08:57:55;;;;;;;2.65;1.20;;;24.50;48.40;;;;;;5072534;28;20036;-67
2021/07/01 09:00:21;;;;;;;4.90;1.15;;;24.50;48.10;;;;;;5070618;28;20115;-67
2021/07/01 09:03:09;;;;;;;2.03;1.40;;;24.40;48.30;;;;;;5072133;28;20024;-67
2021/07/01 09:05:37;;;;;;;2.60;1.15;;;24.50;48.10;;;;;;5072064;28;20024;-67
2021/07/01 09:08:09;;;;;;;3.92;1.35;;;24.50;48.30;;;;;;5072290;28;20417;-67
2021/07/01 09:10:35;;;;;;;2.47;1.20;;;24.50;48.40;;;;;;5076211;28;20392;-67
2021/07/01 09:13:08;;;;;;;1.52;1.00;;;24.50;48.20;;;;;;5076102;28;20021;-67
2021/07/01 09:15:36;;;;;;;3.20;1.38;;;24.50;48.30;;;;;;5076031;28;20071;-67
2021/07/01 09:18:03;;;;;;;2.85;1.17;;;24.50;48.40;;;;;;5076239;28;20515;-67
2021/07/01 09:20:36;;;;;;;2.15;1.15;;;24.50;48.20;;;;;;5076115;28;20032;-67
2021/07/01 09:23:04;;;;;;;2.42;1.02;;;24.50;48.40;;;;;;5075491;28;20472;-67
2021/07/01 09:25:31;;;;;;;3.53;1.10;;;24.50;48.40;;;;;;5075206;28;20040;-67
2021/07/01 09:27:58;;;;;;;4.07;1.30;;;24.50;48.50;;;;;;5075298;28;20031;-67
2021/07/01 09:30:26;;;;;;;6.28;1.42;;;24.50;48.60;;;;;;5075852;28;20047;-68
2021/07/01 09:33:01;;;;;;;2.95;1.23;;;24.50;48.60;;;;;;5075255;28;20020;-67
2021/07/01 09:35:29;;;;;;;1.50;0.80;;;24.50;48.50;;;;;;5075618;28;20085;-67
2021/07/01 09:37:58;;;;;;;2.10;1.10;;;24.50;48.40;;;;;;5075177;28;20052;-67
2021/07/01 09:40:24;;;;;;;2.72;1.20;;;24.50;48.40;;;;;;5075913;28;20024;-67
2021/07/01 09:43:00;;;;;;;2.08;1.15;;;24.50;48.30;;;;;;5075792;28;20035;-67
2021/07/01 09:45:28;;;;;;;5.85;1.80;;;24.50;48.30;;;;;;5075959;28;20109;-67
2021/07/01 09:48:03;;;;;;;2.30;1.08;;;24.50;48.30;;;;;;5075777;28;20052;-68
2021/07/01 09:50:32;;;;;;;1.38;0.95;;;24.50;48.60;;;;;;5076280;28;20027;-67
2021/07/01 09:53:01;;;;;;;2.10;1.23;;;24.50;48.50;;;;;;5075943;28;20507;-67
2021/07/01 09:55:28;;;;;;;1.42;1.00;;;24.50;48.70;;;;;;5076010;28;20029;-67
2021/07/01 09:58:10;;;;;;;2.53;1.20;;;24.50;48.60;;;;;;5075977;28;20059;-67
2021/07/01 10:03:55;;;;;;;5.50;1.95;;;24.50;48.60;;;;;;5070086;28;20898;-66
2021/07/01 10:06:21;;;;;;;2.47;1.35;;;24.50;48.20;;;;;;5070332;28;20493;-67
2021/07/01 10:08:47;;;;;;;2.33;1.23;;;24.50;48.10;;;;;;5070110;28;20473;-67
2021/07/01 10:11:14;;;;;;;4.30;1.40;;;24.50;48.00;;;;;;5070187;28;20025;-67
2021/07/01 10:13:40;;;;;;;3.65;1.40;;;24.50;48.00;;;;;;5069858;28;20024;-67
2021/07/01 10:16:06;;;;;;;4.30;1.20;;;24.50;47.90;;;;;;5069919;28;20033;-67
2021/07/01 10:18:41;;;;;;;1.88;1.00;;;24.50;48.00;;;;;;5070425;28;20025;-67
2021/07/01 10:21:15;;;;;;;2.22;1.15;;;24.50;47.80;;;;;;5070070;28;20017;-67
2021/07/01 10:23:40;;;;;;;2.92;1.10;;;24.50;47.80;;;;;;5069629;28;20469;-67
2021/07/01 10:26:21;;;;;;;1.88;0.98;;;24.50;47.70;;;;;;5069469;28;20043;-67
2021/07/01 10:28:56;;;;;;;;;;;24.50;47.60;;;;;;5068808;28;20053;-66
2021/07/01 10:31:22;;;;;;;2.33;0.90;;;24.50;47.70;;;;;;5069617;28;19909;-66
2021/07/01 10:33:47;;;;;;;2.85;1.08;;;24.60;47.90;;;;;;5069517;28;20090;-68
2021/07/01 10:36:21;;;;;;;3.90;1.63;;;24.50;47.40;;;;;;5069629;28;20043;-67
2021/07/01 10:38:52;;;;;;;3.13;1.00;;;24.50;47.20;;;;;;5069149;28;20112;-67
2021/07/01 10:41:32;;;;;;;2.80;1.30;;;24.50;47.10;;;;;;5069351;28;20090;-67
2021/07/01 10:43:59;;;;;;;3.30;1.10;;;24.50;47.00;;;;;;5069294;28;20021;-67
2021/07/01 10:46:43;;;;;;;3.20;1.25;;;24.50;47.10;;;;;;5068044;28;20059;-69
2021/07/01 10:49:09;;;;;;;2.20;0.95;;;24.50;47.00;;;;;;5067542;28;20396;-66
2021/07/01 10:51:35;;;;;;;2.05;1.00;;;24.50;46.90;;;;;;5068978;28;20127;-66
2021/07/01 10:54:15;;;;;;;2.53;1.08;;;24.50;47.20;;;;;;5067732;28;20087;-66
2021/07/01 10:56:43;;;;;;;1.20;0.82;;;24.60;47.10;;;;;;5068884;28;20029;-66
2021/07/01 10:59:11;;;;;;;3.60;1.10;;;24.50;46.90;;;;;;5068950;28;20074;-66
2021/07/01 11:01:41;;;;;;;1.80;0.98;;;24.50;46.90;;;;;;5067321;28;20052;-66
2021/07/01 11:04:10;;;;;;;1.30;0.88;;;24.50;46.90;;;;;;5069083;28;20029;-66
2021/07/01 11:06:37;;;;;;;2.85;1.20;;;24.60;47.00;;;;;;5069000;28;20507;-67
2021/07/01 11:09:05;;;;;;;2.20;0.90;;;24.50;46.90;;;;;;5069004;28;20025;-67
2021/07/01 11:11:34;;;;;;;1.48;1.17;;;24.50;47.00;;;;;;5068761;28;20086;-67
2021/07/01 11:14:03;;;;;;;2.63;0.95;;;24.60;46.90;;;;;;5060492;28;20021;-67
2021/07/01 11:16:38;;;;;;;2.20;0.80;;;24.60;46.90;;;;;;5055192;28;20021;-67
2021/07/01 11:19:11;;;;;;;3.50;0.93;;;24.60;47.00;;;;;;5055594;28;20268;-73
2021/07/01 11:21:43;;;;;;;2.40;1.17;;;24.60;47.30;;;;;;5055380;28;20075;-68
2021/07/01 11:24:18;;;;;;;46.70;34.03;;;24.60;47.00;;;;;;5055330;28;20100;-68
2021/07/01 11:26:47;;;;;;;25.13;20.20;;;24.60;46.00;;;;;;5054748;28;20035;-68
2021/07/01 11:29:13;;;;;;;103.85;83.85;;;24.70;45.70;;;;;;5055512;28;20024;-67
2021/07/01 11:31:42;;;;;;;125.18;95.28;;;24.70;45.50;;;;;;5055177;28;20115;-67
2021/07/01 11:34:09;;;;;;;132.80;99.85;;;24.70;45.00;;;;;;5055580;28;20059;-67
2021/07/01 11:36:36;;;;;;;133.35;100.70;;;24.70;44.90;;;;;;5055373;28;20025;-67
2021/07/01 11:39:10;;;;;;;70.93;52.75;;;24.70;44.60;;;;;;5055019;28;20108;-69
2021/07/01 11:41:36;;;;;;;46.42;35.95;;;24.70;44.50;;;;;;5055019;28;20072;-67
2021/07/01 11:44:03;;;;;;;32.67;24.60;;;24.70;44.30;;;;;;5055051;28;20033;-68
2021/07/01 11:46:28;;;;;;;27.15;17.48;;;24.80;44.00;;;;;;5054657;28;20481;-68
2021/07/01 11:48:55;;;;;;;24.30;15.55;;;24.70;43.70;;;;;;5054828;28;20059;-67
2021/07/01 11:51:22;;;;;;;16.58;11.00;;;24.70;43.50;;;;;;5054337;28;20366;-67
2021/07/01 11:53:49;;;;;;;13.70;9.43;;;24.80;43.30;;;;;;5054432;28;20461;-67
2021/07/01 11:56:16;;;;;;;13.05;8.63;;;24.80;43.00;;;;;;5052797;28;20051;-67
2021/07/01 11:58:43;;;;;;;10.60;5.90;;;24.80;42.40;;;;;;5054593;28;20025;-67
2021/07/01 12:01:09;;;;;;;8.63;5.20;;;24.80;42.40;;;;;;5054326;28;20404;-68
2021/07/01 12:03:36;;;;;;;10.68;5.70;;;24.80;42.00;;;;;;5054614;28;20086;-67
2021/07/01 12:06:03;;;;;;;9.52;5.35;;;24.80;42.10;;;;;;5053542;28;20112;-67
2021/07/01 12:08:30;;;;;;;10.38;5.65;;;24.70;42.70;;;;;;5052844;28;20024;-67
2021/07/01 12:11:05;;;;;;;9.32;5.10;;;24.70;43.20;;;;;;5053442;28;20029;-67
2021/07/01 12:13:31;;;;;;;11.45;6.40;;;24.70;43.40;;;;;;5053051;28;20025;-68
2021/07/01 12:15:59;;;;;;;8.65;5.80;;;24.70;43.60;;;;;;5053495;28;20040;-67
2021/07/01 12:18:45;;;;;;;10.35;5.80;;;24.70;43.90;;;;;;5053108;28;20036;-67
2021/07/01 12:21:13;;;;;;;9.90;5.53;;;24.70;44.10;;;;;;5052338;28;20021;-68
2021/07/01 12:23:50;;;;;;;8.30;5.68;;;24.70;44.40;;;;;;5054243;28;20033;-67
2021/07/01 12:26:37;;;;;;;8.65;5.43;;;24.70;44.40;;;;;;5053457;28;20033;-67
2021/07/01 12:29:09;;;;;;;8.52;4.68;;;24.70;44.50;;;;;;5054051;28;20514;-67
2021/07/01 12:31:36;;;;;;;7.28;4.45;;;24.70;44.50;;;;;;5054078;28;20381;-67
2021/07/01 12:34:04;;;;;;;6.10;4.03;;;24.70;44.50;;;;;;5053770;28;20370;-68
2021/07/01 12:36:47;;;;;;;5.30;3.47;;;24.70;44.30;;;;;;5054248;28;20036;-68
2021/07/01 12:39:16;;;;;;;5.90;3.80;;;24.70;44.40;;;;;;5053903;28;20033;-68
2021/07/01 12:41:47;;;;;;;6.75;3.80;;;24.70;44.30;;;;;;5053923;28;20126;-68
2021/07/01 12:44:22;;;;;;;6.05;3.58;;;24.70;44.50;;;;;;5053927;28;20033;-68
2021/07/01 12:46:47;;;;;;;5.72;3.28;;;24.60;44.50;;;;;;5054272;28;20040;-68
2021/07/01 12:49:21;;;;;;;5.93;2.67;;;24.70;44.60;;;;;;5053766;28;20029;-68
2021/07/01 12:51:55;;;;;;;5.63;2.75;;;24.70;44.60;;;;;;5053870;28;20473;-68